Time;durP1;ratioP1;P1;durP2;ratioP2;P2;SDS_P1;SDS_P2;PMS_P1;PMS_P2;Temp;Humidity;BMP_temperature;BMP_pressure;BME280_temperature;BME280_humidity;BME280_pressure;Samples;Min_cycle;Max_cycle;Signal;HPM_P1;HPM_P2
2022/03/22 00:00:11;;;;;;;16.30;11.70;;;2.00;99.90;;;;;;5073863;28;20044;-72
2022/03/22 00:02:43;;;;;;;21.08;12.13;;;2.00;99.90;;;;;;5057969;28;20051;-75
2022/03/22 00:05:11;;;;;;;16.77;11.30;;;2.00;99.90;;;;;;5075550;28;20055;-71
2022/03/22 00:07:43;;;;;;;20.23;13.10;;;2.00;99.90;;;;;;5091518;28;20032;-70
2022/03/22 00:10:14;;;;;;;14.18;10.20;;;1.90;99.90;;;;;;5076826;28;20050;-72
2022/03/22 00:12:49;;;;;;;17.33;11.40;;;1.90;99.90;;;;;;5087678;28;20051;-72
2022/03/22 00:15:20;;;;;;;28.50;14.82;;;1.90;99.90;;;;;;5093344;28;20040;-71
2022/03/22 00:17:52;;;;;;;21.58;12.57;;;1.90;99.90;;;;;;5057925;28;20054;-73
2022/03/22 00:20:24;;;;;;;19.38;12.02;;;1.80;99.90;;;;;;5091943;28;20051;-71
2022/03/22 00:22:51;;;;;;;17.23;12.45;;;1.80;99.90;;;;;;5073431;28;20093;-72
2022/03/22 00:25:23;;;;;;;17.60;12.43;;;1.80;99.90;;;;;;5072067;28;20047;-71
2022/03/22 00:27:57;;;;;;;19.23;11.77;;;1.70;99.90;;;;;;5073552;28;20498;-71
2022/03/22 00:30:33;;;;;;;18.15;11.48;;;1.70;99.90;;;;;;5073816;28;20114;-70
2022/03/22 00:33:06;;;;;;;18.80;11.68;;;1.60;99.90;;;;;;5090923;28;20040;-71
2022/03/22 00:35:39;;;;;;;23.23;12.15;;;1.60;99.90;;;;;;5057724;28;20048;-72
2022/03/22 00:38:12;;;;;;;21.63;12.10;;;1.60;99.90;;;;;;5091739;28;20050;-72
2022/03/22 00:40:44;;;;;;;18.98;11.20;;;1.60;99.90;;;;;;5091764;28;20057;-71
2022/03/22 00:43:16;;;;;;;21.20;11.77;;;1.50;99.90;;;;;;5073327;28;20499;-71
2022/03/22 00:45:48;;;;;;;17.92;11.35;;;1.40;99.90;;;;;;5057686;28;20495;-71
2022/03/22 00:48:19;;;;;;;24.27;11.82;;;1.50;99.90;;;;;;5074412;28;20050;-71
2022/03/22 00:50:51;;;;;;;23.58;12.88;;;1.50;99.90;;;;;;5073505;28;20051;-72
2022/03/22 00:53:23;;;;;;;26.15;13.95;;;1.50;99.90;;;;;;5057389;28;20044;-71
2022/03/22 00:55:54;;;;;;;17.00;10.85;;;1.40;99.90;;;;;;5074419;28;20046;-71
2022/03/22 00:58:26;;;;;;;20.23;11.85;;;1.40;99.90;;;;;;5091444;28;20050;-71
2022/03/22 01:00:59;;;;;;;17.48;11.57;;;1.40;99.90;;;;;;5074472;28;20058;-71
2022/03/22 01:03:31;;;;;;;18.10;10.93;;;1.40;99.90;;;;;;5073072;28;20044;-70
2022/03/22 01:06:04;;;;;;;19.33;11.55;;;1.30;99.90;;;;;;5091475;28;20058;-71
2022/03/22 01:08:37;;;;;;;19.85;12.43;;;1.30;99.90;;;;;;5074563;28;20032;-72
2022/03/22 01:11:08;;;;;;;16.55;12.02;;;1.30;99.90;;;;;;5057395;28;20040;-71
2022/03/22 01:13:40;;;;;;;16.70;11.02;;;1.20;99.90;;;;;;5073035;28;20056;-72
2022/03/22 01:16:12;;;;;;;16.80;11.02;;;1.20;99.90;;;;;;5073193;28;20063;-71
2022/03/22 01:18:44;;;;;;;17.38;10.50;;;1.10;99.90;;;;;;5091389;28;20048;-71
2022/03/22 01:21:10;;;;;;;19.30;10.75;;;1.10;99.90;;;;;;5091739;28;20048;-71
2022/03/22 01:23:42;;;;;;;20.38;11.25;;;1.10;99.90;;;;;;5072766;28;20047;-71
2022/03/22 01:26:14;;;;;;;17.52;10.98;;;1.00;99.90;;;;;;5091322;28;20036;-71
2022/03/22 01:28:46;;;;;;;19.25;11.35;;;1.00;99.90;;;;;;5057218;28;20127;-71
2022/03/22 01:31:18;;;;;;;20.52;11.82;;;0.90;99.90;;;;;;5091310;28;20046;-72
2022/03/22 01:33:44;;;;;;;23.20;13.07;;;0.90;99.90;;;;;;5056266;28;20048;-71
2022/03/22 01:36:17;;;;;;;21.52;11.45;;;0.80;99.90;;;;;;5073940;28;20032;-71
2022/03/22 01:38:49;;;;;;;23.80;12.35;;;0.80;99.90;;;;;;5074142;28;20040;-71
2022/03/22 01:41:21;;;;;;;19.50;11.77;;;0.80;99.90;;;;;;5091219;28;20052;-71
2022/03/22 01:43:52;;;;;;;17.35;11.38;;;0.80;99.90;;;;;;5074079;28;20137;-72
2022/03/22 01:46:27;;;;;;;20.42;11.30;;;0.80;99.90;;;;;;5077853;28;20036;-72
2022/03/22 01:48:59;;;;;;;21.30;11.60;;;0.80;99.90;;;;;;5076659;28;20499;-72
2022/03/22 01:51:34;;;;;;;16.33;10.40;;;0.80;99.90;;;;;;5076750;28;20054;-70
2022/03/22 01:54:06;;;;;;;17.55;11.25;;;0.80;99.90;;;;;;5076332;28;20126;-72
2022/03/22 01:56:38;;;;;;;17.95;11.55;;;0.80;99.90;;;;;;5077472;28;20047;-71
2022/03/22 01:59:11;;;;;;;18.75;12.15;;;0.70;99.90;;;;;;5076242;28;20109;-71
2022/03/22 02:07:19;;;;;;;22.50;12.75;;;0.70;99.90;;;;;;5075543;28;20036;-71
2022/03/22 02:09:51;;;;;;;21.42;12.02;;;0.70;99.90;;;;;;5076749;28;20414;-71
2022/03/22 02:12:23;;;;;;;30.05;14.75;;;0.70;99.90;;;;;;5059627;28;20105;-72
2022/03/22 02:14:55;;;;;;;22.75;12.68;;;0.60;99.90;;;;;;5093792;28;20490;-71
2022/03/22 02:17:27;;;;;;;23.65;12.57;;;0.60;99.90;;;;;;5075494;28;20036;-72
2022/03/22 02:19:59;;;;;;;18.88;11.32;;;0.50;99.90;;;;;;5059703;28;20048;-72
2022/03/22 02:22:35;;;;;;;18.90;11.33;;;0.40;99.90;;;;;;5075518;28;20054;-72
2022/03/22 02:25:15;;;;;;;19.35;12.30;;;0.40;99.90;;;;;;5059474;28;20066;-71
2022/03/22 02:27:49;;;;;;;22.80;13.18;;;0.40;99.90;;;;;;5093493;28;20384;-71
2022/03/22 02:30:22;;;;;;;22.98;12.55;;;0.30;99.90;;;;;;5076189;28;20482;-72
2022/03/22 02:32:55;;;;;;;18.05;12.05;;;0.20;99.90;;;;;;5093267;28;20066;-70
2022/03/22 02:35:28;;;;;;;;;;;0.30;99.90;;;;;;5075683;28;20047;-72
2022/03/22 02:38:00;;;;;;;17.95;11.75;;;0.20;99.90;;;;;;5093302;28;19920;-71
2022/03/22 02:40:32;;;;;;;20.13;11.60;;;0.20;99.90;;;;;;5075131;28;20046;-71
2022/03/22 02:43:04;;;;;;;23.55;12.40;;;0.20;99.90;;;;;;5074766;28;20055;-71
2022/03/22 02:45:32;;;;;;;19.58;10.93;;;0.20;99.90;;;;;;5093156;28;20048;-72
2022/03/22 02:48:04;;;;;;;20.55;12.32;;;0.30;99.90;;;;;;5075880;28;20040;-72
2022/03/22 02:50:35;;;;;;;19.90;11.45;;;0.30;99.90;;;;;;5074998;28;20058;-72
2022/03/22 02:53:07;;;;;;;19.88;13.25;;;0.30;99.90;;;;;;5058700;28;20054;-71
2022/03/22 02:55:39;;;;;;;23.45;12.13;;;0.30;99.90;;;;;;5058585;28;20040;-72
2022/03/22 02:58:11;;;;;;;23.00;12.35;;;0.30;99.90;;;;;;5092865;28;20046;-71
2022/03/22 03:00:43;;;;;;;22.60;13.75;;;0.30;99.90;;;;;;5059104;28;20093;-70
2022/03/22 03:03:15;;;;;;;26.52;14.15;;;0.30;99.90;;;;;;5074332;28;20036;-72
2022/03/22 03:05:49;;;;;;;21.45;13.45;;;0.20;99.90;;;;;;5074652;28;20410;-71
2022/03/22 03:08:26;;;;;;;24.30;13.20;;;0.20;99.90;;;;;;5074500;28;20051;-70
2022/03/22 03:10:58;;;;;;;70.82;26.48;;;0.20;99.90;;;;;;5074577;28;20037;-71
2022/03/22 03:14:38;;;;;;;35.92;15.63;;;0.10;99.90;;;;;;5058363;28;20039;-71
2022/03/22 03:16:22;;;;;;;43.33;17.35;;;0.10;99.90;;;;;;5074187;28;20044;-73
2022/03/22 03:18:53;;;;;;;42.72;19.77;;;0.00;99.90;;;;;;5092591;28;20036;-71
2022/03/22 03:21:25;;;;;;;56.25;22.38;;;0.00;99.90;;;;;;5074444;28;20040;-71
2022/03/22 03:23:57;;;;;;;31.17;15.02;;;0.10;99.90;;;;;;5074899;28;20048;-71
2022/03/22 03:26:29;;;;;;;28.05;14.63;;;0.10;99.90;;;;;;5074107;28;20052;-72
2022/03/22 03:29:01;;;;;;;27.92;15.13;;;0.00;99.90;;;;;;5074146;28;20054;-71
2022/03/22 03:31:28;;;;;;;31.75;16.40;;;0.00;99.90;;;;;;5074115;28;20486;-71
2022/03/22 03:33:59;;;;;;;33.03;17.10;;;0.00;99.90;;;;;;5073877;28;20127;-71
2022/03/22 03:36:31;;;;;;;42.05;19.10;;;-0.10;99.90;;;;;;5092296;28;20046;-72
2022/03/22 03:39:05;;;;;;;26.23;14.50;;;-0.10;99.90;;;;;;5092082;28;20498;-71
2022/03/22 03:41:53;;;;;;;25.50;14.07;;;-0.20;99.90;;;;;;5075110;28;20044;-70
2022/03/22 03:47:20;;;;;;;23.92;13.43;;;-0.20;99.90;;;;;;5091837;28;20051;-72
2022/03/22 03:50:00;;;;;;;25.55;13.88;;;-0.30;99.90;;;;;;5073888;28;20040;-71
2022/03/22 03:52:34;;;;;;;26.88;14.23;;;-0.40;99.90;;;;;;5057626;28;20044;-72
2022/03/22 03:55:08;;;;;;;29.30;14.27;;;-0.50;99.90;;;;;;5074722;28;20040;-71
2022/03/22 03:57:39;;;;;;;31.27;14.98;;;-0.50;99.90;;;;;;5057699;28;20442;-71
2022/03/22 04:00:09;;;;;;;23.75;13.65;;;-0.50;99.90;;;;;;5057027;28;20490;-72
2022/03/22 04:02:41;;;;;;;21.13;13.60;;;-0.50;99.90;;;;;;5057394;28;20078;-72
2022/03/22 04:05:12;;;;;;;26.92;15.57;;;-0.60;99.90;;;;;;5091756;28;20044;-71
2022/03/22 04:07:44;;;;;;;25.58;14.38;;;-0.60;99.90;;;;;;5056971;28;20040;-71
2022/03/22 04:10:16;;;;;;;26.20;15.10;;;-0.60;99.90;;;;;;5057534;28;20036;-71
2022/03/22 04:12:48;;;;;;;24.98;14.32;;;-0.60;99.90;;;;;;5091392;28;20044;-72
2022/03/22 04:15:20;;;;;;;23.75;12.93;;;-0.60;99.90;;;;;;5074373;28;20414;-72
2022/03/22 04:17:52;;;;;;;20.63;12.50;;;-0.60;99.90;;;;;;5073459;28;20129;-70
2022/03/22 04:20:21;;;;;;;22.33;11.95;;;-0.70;99.90;;;;;;5091873;28;20234;-71
2022/03/22 04:22:53;;;;;;;23.15;13.75;;;-0.70;99.90;;;;;;5091705;28;20039;-71
2022/03/22 04:25:25;;;;;;;19.35;11.13;;;-0.70;99.90;;;;;;5074258;28;20379;-71
2022/03/22 04:33:37;;;;;;;21.98;13.02;;;-0.60;99.90;;;;;;5091567;28;20047;-72
2022/03/22 04:36:12;;;;;;;22.17;13.27;;;-0.60;99.90;;;;;;5073715;28;20044;-71
2022/03/22 04:38:43;;;;;;;25.17;14.48;;;-0.60;99.90;;;;;;5053750;28;20040;-72
2022/03/22 04:41:15;;;;;;;19.42;11.68;;;-0.60;99.90;;;;;;5068310;28;20348;-71
2022/03/22 04:43:47;;;;;;;18.63;11.65;;;-0.70;99.90;;;;;;5094242;28;20448;-71
2022/03/22 04:46:19;;;;;;;26.35;13.85;;;-0.70;99.90;;;;;;5088979;28;20108;-71
2022/03/22 04:48:51;;;;;;;28.23;14.50;;;-0.70;99.90;;;;;;5072043;28;20517;-71
2022/03/22 04:57:03;;;;;;;22.98;12.93;;;-0.70;99.90;;;;;;5072703;28;20048;-72
2022/03/22 04:59:35;;;;;;;26.27;12.63;;;-0.80;99.90;;;;;;5091224;28;20040;-73
2022/03/22 05:02:06;;;;;;;20.73;11.98;;;-0.80;99.90;;;;;;5069791;28;20037;-72
2022/03/22 05:04:38;;;;;;;20.80;11.80;;;-0.90;99.90;;;;;;5069447;28;20043;-71
2022/03/22 05:07:10;;;;;;;21.15;12.07;;;-0.90;99.90;;;;;;5052876;28;20045;-72
2022/03/22 05:09:41;;;;;;;18.77;11.57;;;-0.90;99.90;;;;;;5052838;28;20396;-72
2022/03/22 05:12:13;;;;;;;20.10;11.70;;;-1.00;99.90;;;;;;5088777;28;20049;-70
2022/03/22 05:14:50;;;;;;;19.08;11.98;;;-1.00;99.90;;;;;;5069777;28;20104;-71
2022/03/22 05:17:23;;;;;;;23.30;11.88;;;-1.00;99.90;;;;;;5082871;28;20044;-72
2022/03/22 05:19:55;;;;;;;28.60;11.07;;;-1.00;99.90;;;;;;5092810;28;20037;-72
2022/03/22 05:22:27;;;;;;;18.38;10.43;;;-1.10;99.90;;;;;;5075106;28;20043;-72
2022/03/22 05:24:59;;;;;;;18.00;11.32;;;-1.10;99.90;;;;;;5085287;28;20036;-72
2022/03/22 05:27:30;;;;;;;17.13;10.90;;;-1.20;99.90;;;;;;5070370;28;20040;-71
2022/03/22 05:30:03;;;;;;;16.42;10.93;;;-1.20;99.90;;;;;;5078387;28;20126;-71
2022/03/22 05:32:35;;;;;;;22.58;11.35;;;-1.20;99.90;;;;;;5086242;28;20113;-71
2022/03/22 05:35:07;;;;;;;20.63;12.77;;;-1.20;99.90;;;;;;5079384;28;20047;-72
2022/03/22 05:37:39;;;;;;;20.40;11.82;;;-1.20;99.90;;;;;;5087130;28;20042;-71
2022/03/22 05:40:11;;;;;;;20.67;11.75;;;-1.20;99.90;;;;;;5074797;28;20040;-72
2022/03/22 05:42:43;;;;;;;22.38;11.90;;;-1.20;99.90;;;;;;5071998;28;20044;-70
2022/03/22 05:45:15;;;;;;;18.98;12.13;;;-1.10;99.90;;;;;;5083882;28;20037;-72
2022/03/22 05:47:47;;;;;;;19.33;11.32;;;-1.10;99.90;;;;;;5090752;28;20042;-71
2022/03/22 05:50:18;;;;;;;22.83;13.25;;;-1.10;99.90;;;;;;5075138;28;20047;-73
2022/03/22 05:52:50;;;;;;;20.85;12.70;;;-1.00;99.90;;;;;;5064289;28;20410;-71
2022/03/22 05:55:22;;;;;;;20.38;13.30;;;-1.00;99.90;;;;;;5096414;28;20040;-71
2022/03/22 05:57:54;;;;;;;26.70;14.15;;;-1.00;99.90;;;;;;5074156;28;20083;-71
2022/03/22 06:00:25;;;;;;;22.95;12.75;;;-0.90;99.90;;;;;;5075059;28;20044;-72
2022/03/22 06:02:58;;;;;;;28.35;13.80;;;-0.90;99.90;;;;;;5074465;28;20040;-73
2022/03/22 06:05:29;;;;;;;25.45;15.02;;;-1.00;99.90;;;;;;5093133;28;20046;-72
2022/03/22 06:08:01;;;;;;;32.35;14.75;;;-1.00;99.90;;;;;;5075694;28;20040;-72
2022/03/22 06:10:33;;;;;;;26.17;15.30;;;-1.00;99.90;;;;;;5092951;28;20028;-71
2022/03/22 06:13:05;;;;;;;26.23;15.50;;;-1.00;99.90;;;;;;5074897;28;20486;-72
2022/03/22 06:15:37;;;;;;;22.88;13.23;;;-1.00;99.90;;;;;;5075538;28;20036;-72
2022/03/22 06:18:11;;;;;;;21.98;13.68;;;-0.90;99.90;;;;;;5081985;28;20050;-71
2022/03/22 06:20:42;;;;;;;22.45;13.07;;;-0.90;99.90;;;;;;5075360;28;20047;-72
2022/03/22 06:23:15;;;;;;;23.70;12.68;;;-0.80;99.90;;;;;;5057699;28;20127;-71
2022/03/22 06:25:47;;;;;;;19.77;11.23;;;-0.80;99.90;;;;;;5092175;28;20044;-71
2022/03/22 06:28:19;;;;;;;20.15;12.40;;;-0.70;99.90;;;;;;5058787;28;20050;-73
2022/03/22 06:30:51;;;;;;;24.15;13.07;;;-0.70;99.90;;;;;;5075589;28;20438;-71
2022/03/22 06:33:24;;;;;;;23.80;14.50;;;-0.70;99.90;;;;;;5094928;28;20036;-70
2022/03/22 06:35:51;;;;;;;26.42;16.25;;;-0.60;99.90;;;;;;5094888;28;20032;-71
2022/03/22 06:38:23;;;;;;;32.35;17.70;;;-0.50;99.90;;;;;;5082461;28;20036;-72
2022/03/22 06:40:55;;;;;;;37.15;17.77;;;-0.40;99.90;;;;;;5093261;28;20040;-71
2022/03/22 06:43:21;;;;;;;27.88;18.15;;;-0.40;99.90;;;;;;5075981;28;20520;-71
2022/03/22 06:45:53;;;;;;;23.02;13.05;;;-0.30;99.90;;;;;;5088251;28;20042;-71
2022/03/22 06:48:25;;;;;;;25.60;16.48;;;-0.20;99.90;;;;;;5085681;28;20035;-71
2022/03/22 06:50:57;;;;;;;32.25;19.30;;;0.30;99.90;;;;;;5083546;28;20074;-74
2022/03/22 06:53:28;;;;;;;29.65;17.48;;;0.50;99.90;;;;;;5091930;28;20047;-72
2022/03/22 06:56:00;;;;;;;33.88;18.15;;;0.50;99.90;;;;;;5076221;28;20058;-72
2022/03/22 06:58:32;;;;;;;38.15;20.73;;;0.50;99.90;;;;;;5090968;28;20415;-72
2022/03/22 07:01:05;;;;;;;38.28;20.67;;;0.50;99.90;;;;;;5076133;28;20048;-72
2022/03/22 07:03:36;;;;;;;33.22;19.80;;;0.50;99.90;;;;;;5091768;28;20418;-72
2022/03/22 07:06:08;;;;;;;34.15;19.35;;;0.40;99.90;;;;;;5092221;28;20056;-73
2022/03/22 07:08:40;;;;;;;33.05;20.30;;;0.50;99.90;;;;;;5092076;28;20494;-73
2022/03/22 07:14:03;;;;;;;31.95;17.70;;;0.60;99.90;;;;;;5093021;28;20054;-71
2022/03/22 07:16:36;;;;;;;31.33;18.13;;;0.60;99.90;;;;;;5091978;28;20530;-73
2022/03/22 07:19:08;;;;;;;33.60;17.90;;;0.70;99.90;;;;;;5091986;28;20058;-72
2022/03/22 07:21:40;;;;;;;29.35;17.02;;;0.80;99.90;;;;;;5093161;28;20490;-73
2022/03/22 07:24:13;;;;;;;27.55;17.17;;;0.80;99.90;;;;;;5092709;28;20561;-72
2022/03/22 07:26:45;;;;;;;27.52;17.85;;;0.90;99.90;;;;;;5091748;28;20040;-72
2022/03/22 07:29:17;;;;;;;26.52;16.48;;;0.90;99.90;;;;;;5093038;28;20668;-73
2022/03/22 07:31:49;;;;;;;26.05;16.83;;;1.00;99.90;;;;;;5091780;28;20467;-73
2022/03/22 07:34:21;;;;;;;27.95;16.02;;;1.10;99.90;;;;;;5092575;28;20074;-72
2022/03/22 07:36:53;;;;;;;26.60;17.38;;;1.20;99.90;;;;;;5091707;28;20428;-73
2022/03/22 07:39:27;;;;;;;30.55;19.10;;;1.30;99.90;;;;;;5092794;28;20032;-72
2022/03/22 07:41:59;;;;;;;27.48;18.67;;;1.40;99.90;;;;;;5091328;28;20127;-72
2022/03/22 07:44:31;;;;;;;32.67;19.50;;;1.50;99.90;;;;;;5091218;28;20048;-73
2022/03/22 07:47:03;;;;;;;30.98;18.90;;;1.60;99.90;;;;;;5091370;28;20040;-72
2022/03/22 07:55:10;;;;;;;26.73;17.33;;;1.90;99.90;;;;;;5092356;28;20122;-72
2022/03/22 07:57:42;;;;;;;30.10;17.42;;;2.10;99.90;;;;;;5092623;28;20121;-72
2022/03/22 08:00:18;;;;;;;25.83;16.10;;;2.20;99.90;;;;;;5093654;28;20040;-72
2022/03/22 08:02:52;;;;;;;33.92;17.55;;;2.20;99.90;;;;;;5093509;28;20047;-73
2022/03/22 08:05:25;;;;;;;31.17;19.30;;;2.40;99.90;;;;;;5090990;28;20064;-73
2022/03/22 08:07:59;;;;;;;31.52;18.73;;;2.40;99.90;;;;;;5075113;28;20046;-73
2022/03/22 08:10:32;;;;;;;29.13;17.30;;;2.60;99.90;;;;;;5092296;28;20044;-73
2022/03/22 08:13:06;;;;;;;25.00;16.90;;;2.70;99.90;;;;;;5090801;28;20445;-72
2022/03/22 08:15:38;;;;;;;25.35;16.77;;;2.90;99.90;;;;;;5090885;28;20058;-73
2022/03/22 08:18:10;;;;;;;25.90;16.67;;;3.00;99.90;;;;;;5091872;28;20051;-73
2022/03/22 08:20:42;;;;;;;28.58;16.98;;;3.20;99.90;;;;;;5090818;28;20044;-72
2022/03/22 08:23:09;;;;;;;27.23;17.13;;;3.20;99.90;;;;;;5092045;28;20050;-74
2022/03/22 08:25:46;;;;;;;26.10;16.52;;;3.40;99.90;;;;;;5075438;28;20578;-73
2022/03/22 08:28:18;;;;;;;28.77;17.88;;;3.60;99.90;;;;;;5092344;28;20044;-73
2022/03/22 08:30:50;;;;;;;35.67;24.52;;;3.70;99.90;;;;;;5074519;28;20058;-73
2022/03/22 08:33:22;;;;;;;33.95;19.73;;;3.90;99.90;;;;;;5090345;28;20036;-73
2022/03/22 08:35:53;;;;;;;28.38;18.23;;;4.00;99.90;;;;;;5074535;28;20044;-72
2022/03/22 08:38:25;;;;;;;27.27;17.25;;;4.20;99.90;;;;;;5091626;28;20032;-73
2022/03/22 08:40:57;;;;;;;26.50;16.35;;;4.30;99.90;;;;;;5090588;28;20074;-73
2022/03/22 08:43:30;;;;;;;21.77;14.68;;;4.50;99.90;;;;;;5074201;28;20050;-74
2022/03/22 08:46:02;;;;;;;25.63;16.58;;;4.70;99.90;;;;;;5090685;28;20067;-73
2022/03/22 08:48:34;;;;;;;52.40;28.98;;;4.80;99.90;;;;;;5090433;28;20044;-73
2022/03/22 08:51:06;;;;;;;35.55;20.58;;;5.00;99.90;;;;;;5090582;28;20036;-73
2022/03/22 08:53:38;;;;;;;37.10;22.95;;;5.10;99.90;;;;;;5073499;28;20047;-73
2022/03/22 08:56:10;;;;;;;32.80;20.75;;;5.20;99.90;;;;;;5090296;28;20066;-72
2022/03/22 08:58:37;;;;;;;23.17;16.98;;;5.40;99.90;;;;;;5091796;28;20066;-73
2022/03/22 09:01:09;;;;;;;29.95;17.70;;;5.60;99.90;;;;;;5090349;28;20048;-73
2022/03/22 09:03:40;;;;;;;23.10;15.70;;;5.70;99.90;;;;;;5091219;28;20048;-74
2022/03/22 09:06:14;;;;;;;23.10;14.57;;;5.90;99.90;;;;;;5091314;28;20044;-73
2022/03/22 09:08:46;;;;;;;;;;;6.00;99.90;;;;;;5074558;28;20040;-72
2022/03/22 09:11:17;;;;;;;20.48;13.65;;;6.30;99.90;;;;;;5090421;28;19920;-73
2022/03/22 09:13:50;;;;;;;22.13;14.15;;;6.40;99.90;;;;;;5089932;28;20044;-75
2022/03/22 09:16:22;;;;;;;22.17;14.50;;;6.60;99.90;;;;;;5090061;28;20040;-73
2022/03/22 09:18:53;;;;;;;21.33;14.95;;;6.80;99.90;;;;;;5090449;28;20048;-74
2022/03/22 09:21:26;;;;;;;20.17;13.27;;;7.00;99.90;;;;;;5090241;28;20040;-73
2022/03/22 09:23:58;;;;;;;26.50;18.17;;;7.10;99.90;;;;;;5073891;28;20086;-73
2022/03/22 09:26:30;;;;;;;26.67;18.80;;;7.30;99.90;;;;;;5074021;28;20039;-75
2022/03/22 09:29:02;;;;;;;22.42;16.02;;;7.40;99.90;;;;;;5089953;28;20054;-73
2022/03/22 09:31:34;;;;;;;35.08;25.85;;;7.60;99.90;;;;;;5091301;28;20054;-72
2022/03/22 09:34:06;;;;;;;22.15;14.30;;;7.70;99.90;;;;;;5091072;28;20047;-73
2022/03/22 09:36:38;;;;;;;27.55;17.45;;;7.90;99.90;;;;;;5091086;28;20075;-72
2022/03/22 09:39:10;;;;;;;18.58;13.48;;;8.00;99.90;;;;;;5090145;28;20044;-72
2022/03/22 09:41:44;;;;;;;21.35;14.10;;;8.10;99.90;;;;;;5091084;28;20055;-73
2022/03/22 09:44:18;;;;;;;18.77;13.23;;;8.30;99.90;;;;;;5089719;28;20052;-72
2022/03/22 09:46:49;;;;;;;21.42;13.60;;;8.50;99.90;;;;;;5089752;28;20131;-73
2022/03/22 09:49:22;;;;;;;20.10;14.05;;;8.50;99.90;;;;;;5091158;28;20055;-72
2022/03/22 09:51:54;;;;;;;19.30;13.88;;;8.70;99.90;;;;;;5073664;28;20051;-73
2022/03/22 09:54:26;;;;;;;19.95;13.32;;;8.90;99.90;;;;;;5089614;28;20406;-73
2022/03/22 09:56:58;;;;;;;19.38;13.35;;;9.00;98.70;;;;;;5089659;28;20048;-72
2022/03/22 09:59:30;;;;;;;18.77;12.73;;;9.10;98.20;;;;;;5089870;28;20102;-73
2022/03/22 10:02:00;;;;;;;20.42;13.43;;;9.30;97.60;;;;;;5089719;28;20151;-73
2022/03/22 10:04:40;;;;;;;19.13;12.40;;;9.40;96.00;;;;;;5089593;28;20048;-72
2022/03/22 10:07:19;;;;;;;20.30;13.07;;;9.50;95.30;;;;;;5075755;28;20048;-72
2022/03/22 10:09:58;;;;;;;18.63;13.32;;;9.70;95.90;;;;;;5093275;28;20048;-74
2022/03/22 10:12:36;;;;;;;21.88;13.00;;;9.80;95.20;;;;;;5093266;28;20052;-73
2022/03/22 10:15:11;;;;;;;16.25;12.48;;;10.00;94.40;;;;;;5093389;28;20044;-73
2022/03/22 10:17:38;;;;;;;19.85;13.23;;;10.10;92.80;;;;;;5076337;28;20040;-73
2022/03/22 10:20:31;;;;;;;18.02;12.40;;;10.20;91.80;;;;;;5094348;28;20050;-74
2022/03/22 10:23:05;;;;;;;19.75;13.10;;;10.40;90.40;;;;;;5092981;28;20040;-73
2022/03/22 10:25:40;;;;;;;;;;;10.50;90.50;;;;;;5093552;28;20040;-73
2022/03/22 10:28:12;;;;;;;16.23;13.30;;;10.60;90.70;;;;;;5094109;28;19927;-73
2022/03/22 10:30:56;;;;;;;19.05;13.77;;;10.80;90.70;;;;;;5092834;28;20043;-73
2022/03/22 10:33:28;;;;;;;26.42;12.18;;;10.90;90.30;;;;;;5092483;28;20040;-73
2022/03/22 10:36:12;;;;;;;19.63;12.88;;;11.00;87.30;;;;;;5092742;28;20043;-73
2022/03/22 10:39:07;;;;;;;18.48;12.95;;;11.10;83.00;;;;;;5092693;28;20048;-73
2022/03/22 10:41:43;;;;;;;16.67;10.98;;;11.10;79.90;;;;;;5092851;28;20044;-73
2022/03/22 10:44:18;;;;;;;18.77;12.50;;;11.30;77.40;;;;;;5092402;28;20071;-73
2022/03/22 10:46:51;;;;;;;19.05;12.95;;;11.40;77.90;;;;;;5092499;28;20046;-72
2022/03/22 10:49:24;;;;;;;14.95;11.75;;;11.50;76.70;;;;;;5093892;28;20040;-73
2022/03/22 10:51:56;;;;;;;18.67;13.00;;;11.60;75.40;;;;;;5093850;28;20036;-72
2022/03/22 10:54:28;;;;;;;20.02;13.55;;;11.70;76.10;;;;;;5092260;28;20032;-73
2022/03/22 10:57:01;;;;;;;20.38;14.00;;;11.80;74.80;;;;;;5076433;28;20480;-73
2022/03/22 10:59:34;;;;;;;21.27;13.85;;;11.90;73.50;;;;;;5093687;28;20130;-73
2022/03/22 11:02:07;;;;;;;21.30;13.85;;;12.00;72.40;;;;;;5093557;28;20044;-73
2022/03/22 11:04:40;;;;;;;24.55;14.45;;;12.20;75.40;;;;;;5092172;28;20048;-72
2022/03/22 11:07:15;;;;;;;23.30;14.75;;;12.30;76.40;;;;;;5093357;28;20042;-73
2022/03/22 11:09:46;;;;;;;22.58;14.07;;;12.50;74.30;;;;;;5076079;28;20046;-73
2022/03/22 11:12:19;;;;;;;21.08;14.55;;;12.50;73.50;;;;;;5093277;28;20042;-73
2022/03/22 11:14:51;;;;;;;20.58;13.85;;;12.60;75.40;;;;;;5092069;28;20032;-73
2022/03/22 11:17:24;;;;;;;18.15;13.32;;;12.70;74.70;;;;;;5075347;28;20044;-73
2022/03/22 11:19:57;;;;;;;19.40;13.43;;;12.80;72.50;;;;;;5093278;28;20036;-73
2022/03/22 11:22:29;;;;;;;20.15;13.00;;;12.80;72.50;;;;;;5091787;28;20050;-72
2022/03/22 11:25:12;;;;;;;21.20;14.40;;;12.90;72.80;;;;;;5092039;28;20048;-73
2022/03/22 11:27:59;;;;;;;18.90;13.77;;;13.00;72.90;;;;;;5083179;28;20040;-73
2022/03/22 11:30:32;;;;;;;25.08;14.82;;;13.10;71.70;;;;;;5085105;28;20456;-73
2022/03/22 11:35:59;;;;;;;21.60;14.95;;;13.30;70.20;;;;;;5070230;28;20050;-73
2022/03/22 11:38:54;;;;;;;20.35;14.10;;;13.40;68.70;;;;;;5092479;28;20042;-73
2022/03/22 11:44:24;;;;;;;18.67;13.18;;;13.50;69.50;;;;;;5073644;28;20062;-73
2022/03/22 11:47:17;;;;;;;17.88;12.68;;;13.60;68.40;;;;;;5085579;28;20037;-72
2022/03/22 11:49:59;;;;;;;18.92;13.15;;;13.80;67.40;;;;;;5069769;28;20035;-72
2022/03/22 11:52:37;;;;;;;20.48;12.20;;;13.90;65.10;;;;;;5069872;28;20033;-72
2022/03/22 11:55:21;;;;;;;22.00;12.60;;;14.00;64.50;;;;;;5074589;28;20032;-72
2022/03/22 11:58:05;;;;;;;20.63;12.25;;;14.20;64.50;;;;;;5076173;28;20051;-72
2022/03/22 12:00:47;;;;;;;;;;;14.30;62.10;;;;;;5085775;28;20038;-72
2022/03/22 12:03:23;;;;;;;19.88;11.30;;;14.50;63.20;;;;;;5073145;28;20299;-72
2022/03/22 12:05:55;;;;;;;15.10;12.15;;;14.60;61.60;;;;;;5074724;28;20047;-73
2022/03/22 12:08:27;;;;;;;16.38;11.65;;;14.70;60.80;;;;;;5074358;28;20066;-72
2022/03/22 12:11:00;;;;;;;17.23;12.65;;;14.80;60.00;;;;;;5075517;28;20128;-73
2022/03/22 12:13:31;;;;;;;16.33;11.33;;;14.90;60.00;;;;;;5083578;28;20042;-73
2022/03/22 12:16:05;;;;;;;16.88;11.18;;;15.00;58.10;;;;;;5073600;28;20051;-72
2022/03/22 12:18:39;;;;;;;;;;;15.00;56.70;;;;;;5058072;28;20518;-74
2022/03/22 12:21:19;;;;;;;14.13;11.57;;;15.00;55.90;;;;;;5091662;28;19920;-72
2022/03/22 12:23:50;;;;;;;17.65;10.30;;;15.00;56.50;;;;;;5072735;28;20060;-72
2022/03/22 12:26:26;;;;;;;13.45;10.05;;;15.10;54.90;;;;;;5090527;28;20086;-72
2022/03/22 12:29:04;;;;;;;15.38;10.70;;;15.20;52.80;;;;;;5057612;28;20040;-73
2022/03/22 12:31:45;;;;;;;14.20;11.10;;;15.30;53.00;;;;;;5073865;28;20100;-73
2022/03/22 12:34:26;;;;;;;15.48;10.38;;;15.30;52.70;;;;;;5073190;28;20060;-72
2022/03/22 12:36:58;;;;;;;13.82;9.98;;;15.40;51.70;;;;;;5072622;28;20063;-72
2022/03/22 12:39:30;;;;;;;15.15;10.88;;;15.40;52.60;;;;;;5088827;28;20093;-72
2022/03/22 12:42:02;;;;;;;14.68;10.05;;;15.50;52.10;;;;;;5073938;28;20051;-72
2022/03/22 12:44:35;;;;;;;16.17;10.45;;;15.60;49.90;;;;;;5056919;28;20200;-73
2022/03/22 12:47:07;;;;;;;;;;;15.50;49.70;;;;;;5073245;28;20490;-73
2022/03/22 12:49:40;;;;;;;14.02;8.98;;;15.60;48.90;;;;;;5075326;28;19920;-73
2022/03/22 12:52:11;;;;;;;14.73;10.45;;;15.70;50.50;;;;;;5073325;28;20046;-73
2022/03/22 12:54:44;;;;;;;15.90;10.73;;;15.80;50.40;;;;;;5090993;28;20043;-74
2022/03/22 12:57:17;;;;;;;13.47;9.83;;;15.90;50.20;;;;;;5090885;28;20054;-73
2022/03/22 12:59:49;;;;;;;12.27;9.35;;;15.90;49.20;;;;;;5073948;28;20036;-72
2022/03/22 13:02:22;;;;;;;11.10;8.53;;;16.10;47.80;;;;;;5090282;28;20064;-74
2022/03/22 13:04:54;;;;;;;13.20;9.10;;;16.00;46.60;;;;;;5090944;28;20974;-73
2022/03/22 13:07:27;;;;;;;12.55;8.23;;;16.10;46.50;;;;;;5090832;28;20040;-72
2022/03/22 13:12:51;;;;;;;10.43;8.20;;;16.20;45.30;;;;;;5072273;28;20048;-73
2022/03/22 13:15:24;;;;;;;12.38;9.52;;;16.30;43.70;;;;;;5073769;28;20044;-73
2022/03/22 13:17:56;;;;;;;9.45;7.68;;;16.30;43.60;;;;;;5072591;28;20516;-72
2022/03/22 13:20:28;;;;;;;11.77;7.82;;;16.30;44.00;;;;;;5090828;28;20052;-73
2022/03/22 13:23:09;;;;;;;13.60;9.13;;;16.40;44.30;;;;;;5072269;28;20050;-73
2022/03/22 13:25:42;;;;;;;11.13;8.90;;;16.50;43.90;;;;;;5072611;28;20437;-73
2022/03/22 13:28:15;;;;;;;;;;;16.50;43.10;;;;;;5091004;28;20036;-73
2022/03/22 13:30:48;;;;;;;10.00;7.68;;;16.60;42.70;;;;;;5090573;28;19926;-73
2022/03/22 13:33:22;;;;;;;9.27;7.60;;;16.60;43.40;;;;;;5090203;28;20498;-73
2022/03/22 13:36:02;;;;;;;10.75;8.45;;;16.70;42.50;;;;;;5056640;28;20036;-74
2022/03/22 13:38:34;;;;;;;9.50;7.97;;;16.70;41.40;;;;;;5090768;28;20046;-72
2022/03/22 13:41:07;;;;;;;10.98;8.95;;;16.80;42.30;;;;;;5075588;28;20040;-72